createdAt,value
2017-09-21T00:00:26.610Z,88.50
2017-09-21T00:02:54.091Z,88.30
2017-09-21T00:05:22.348Z,88.00
2017-09-21T00:07:49.841Z,87.90
2017-09-21T00:10:17.347Z,88.90
2017-09-21T00:12:59.710Z,87.70
2017-09-21T00:15:27.186Z,89.00
2017-09-21T00:20:29.694Z,89.90
2017-09-21T00:22:57.179Z,90.30
2017-09-21T00:25:24.658Z,90.40
2017-09-21T00:27:52.902Z,90.40
2017-09-21T00:30:20.376Z,90.40
2017-09-21T00:32:47.855Z,90.60
2017-09-21T00:35:16.116Z,90.80
2017-09-21T00:37:43.598Z,90.70
2017-09-21T00:40:11.841Z,91.00
2017-09-21T00:42:39.321Z,91.00
2017-09-21T00:45:06.816Z,90.90
2017-09-21T00:47:34.303Z,91.20
2017-09-21T00:50:01.774Z,91.20
2017-09-21T00:52:29.262Z,91.40
2017-09-21T00:55:03.915Z,91.70
2017-09-21T00:57:31.399Z,91.30
2017-09-21T00:59:58.873Z,91.20
2017-09-21T01:02:26.352Z,91.50
2017-09-21T01:04:53.843Z,91.30
2017-09-21T01:07:22.086Z,91.50
2017-09-21T01:09:49.570Z,91.40
2017-09-21T01:12:21.420Z,91.10
2017-09-21T01:15:04.552Z,90.70
2017-09-21T01:17:32.794Z,90.60
2017-09-21T01:20:00.292Z,90.50
2017-09-21T01:22:28.533Z,91.00
2017-09-21T01:24:56.023Z,91.00
2017-09-21T01:27:24.274Z,90.50
2017-09-21T01:29:51.771Z,90.50
2017-09-21T01:32:20.086Z,91.00
2017-09-21T01:34:48.391Z,91.00
2017-09-21T01:37:15.862Z,91.20
2017-09-21T01:39:43.347Z,90.90
2017-09-21T01:42:10.825Z,90.90
2017-09-21T01:44:47.543Z,91.00
2017-09-21T01:47:15.033Z,90.90
2017-09-21T01:49:51.056Z,90.70
2017-09-21T01:52:18.542Z,90.70
2017-09-21T01:54:46.793Z,90.70
2017-09-21T01:57:14.330Z,90.70
2017-09-21T01:59:41.810Z,90.90
2017-09-21T02:02:09.290Z,90.80
2017-09-21T02:04:37.550Z,90.80
2017-09-21T02:07:05.025Z,91.10
2017-09-21T02:12:15.309Z,91.10
2017-09-21T02:14:43.592Z,91.20
2017-09-21T02:17:11.838Z,91.10
2017-09-21T02:19:39.317Z,91.00
2017-09-21T02:27:02.583Z,91.30
2017-09-21T02:29:30.062Z,91.60
2017-09-21T02:31:57.544Z,91.80
2017-09-21T02:34:25.782Z,91.60
2017-09-21T02:36:53.263Z,91.50
2017-09-21T02:39:26.706Z,91.20
2017-09-21T02:42:09.064Z,91.50
2017-09-21T02:44:36.552Z,91.70
2017-09-21T02:47:04.039Z,92.00
2017-09-21T02:49:31.523Z,92.10
2017-09-21T02:51:58.996Z,92.10
2017-09-21T02:54:26.476Z,92.40
2017-09-21T03:00:13.296Z,91.80
2017-09-21T03:02:40.772Z,91.70
2017-09-21T03:05:19.727Z,92.00
2017-09-21T03:07:47.211Z,91.90
2017-09-21T03:10:14.691Z,91.40
2017-09-21T03:12:42.178Z,91.50
2017-09-21T03:15:10.443Z,91.50
2017-09-21T03:17:38.696Z,91.80
2017-09-21T03:20:06.178Z,91.70
2017-09-21T03:22:34.427Z,92.20
2017-09-21T03:25:01.914Z,91.80
2017-09-21T03:39:02.085Z,91.90
2017-09-21T03:41:29.558Z,92.30
2017-09-21T03:43:57.039Z,91.60
2017-09-21T03:46:37.979Z,92.30
2017-09-21T03:49:05.465Z,92.30
2017-09-21T03:51:33.714Z,91.70
2017-09-21T03:54:01.190Z,91.60
2017-09-21T03:56:28.674Z,91.90
2017-09-21T03:58:56.919Z,91.80
2017-09-21T04:01:24.401Z,91.80
2017-09-21T04:03:52.642Z,91.70
2017-09-21T04:06:20.136Z,91.70
2017-09-21T04:08:48.384Z,92.00
2017-09-21T04:11:15.867Z,92.00
2017-09-21T04:13:44.121Z,92.00
2017-09-21T04:23:33.107Z,92.20
2017-09-21T04:29:06.006Z,92.70
2017-09-21T04:31:33.500Z,92.60
2017-09-21T04:34:00.981Z,92.50
2017-09-21T04:36:28.472Z,92.40
2017-09-21T04:39:00.637Z,92.40
2017-09-21T04:41:28.120Z,91.80
2017-09-21T04:43:55.603Z,91.40
2017-09-21T04:46:23.084Z,91.80
2017-09-21T04:53:18.906Z,92.00
2017-09-21T04:55:46.389Z,91.90
2017-09-21T04:58:13.892Z,92.40
2017-09-21T05:00:41.371Z,92.40
2017-09-21T05:03:08.851Z,92.20
2017-09-21T05:05:40.198Z,92.50
2017-09-21T05:08:10.734Z,92.70
2017-09-21T05:10:38.208Z,91.90
2017-09-21T05:13:05.686Z,92.70
2017-09-21T05:15:33.936Z,92.10
2017-09-21T05:18:01.419Z,92.00
2017-09-21T05:20:29.658Z,92.40
2017-09-21T05:22:58.064Z,92.30
2017-09-21T05:25:26.310Z,93.20
2017-09-21T05:28:48.583Z,93.20
2017-09-21T05:31:27.669Z,92.20
2017-09-21T05:33:55.146Z,92.10
2017-09-21T05:36:22.624Z,92.10
2017-09-21T05:38:50.110Z,92.40
2017-09-21T05:41:29.926Z,92.50
2017-09-21T05:43:58.914Z,92.40
2017-09-21T05:46:26.434Z,92.30
2017-09-21T05:48:53.923Z,92.50
2017-09-21T05:51:22.804Z,92.40
2017-09-21T05:53:50.282Z,92.10
2017-09-21T05:56:17.769Z,92.30
2017-09-21T05:58:46.022Z,92.70
2017-09-21T06:01:13.503Z,92.60
2017-09-21T06:03:41.761Z,92.30
2017-09-21T06:06:09.244Z,92.20
2017-09-21T06:08:37.495Z,92.30
2017-09-21T06:11:04.974Z,92.20
2017-09-21T06:13:33.224Z,92.30
2017-09-21T06:16:03.327Z,92.30
2017-09-21T06:18:31.270Z,92.20
2017-09-21T06:20:58.758Z,92.70
2017-09-21T06:23:26.243Z,92.70
2017-09-21T06:25:53.722Z,92.30
2017-09-21T06:28:23.994Z,92.40
2017-09-21T06:30:51.470Z,92.40
2017-09-21T06:33:18.950Z,92.30
2017-09-21T06:35:46.427Z,92.70
2017-09-21T06:38:14.673Z,92.80
2017-09-21T06:40:42.155Z,92.70
2017-09-21T06:43:10.407Z,93.60
2017-09-21T06:45:37.898Z,93.50
2017-09-21T06:48:06.877Z,92.50
2017-09-21T06:50:35.117Z,91.70
2017-09-21T06:53:02.604Z,91.70
2017-09-21T06:55:30.079Z,91.50
2017-09-21T06:57:58.327Z,88.50
2017-09-21T07:00:25.807Z,88.30
2017-09-21T07:02:54.067Z,88.00
2017-09-21T07:05:21.550Z,87.40
2017-09-21T07:07:49.794Z,90.40
2017-09-21T07:10:17.271Z,90.40
2017-09-21T07:12:44.763Z,88.10
2017-09-21T07:15:12.242Z,89.50
2017-09-21T07:17:39.727Z,85.90
2017-09-21T07:20:09.275Z,88.70
2017-09-21T07:22:37.552Z,90.20
2017-09-21T07:25:05.047Z,90.10
2017-09-21T07:27:36.031Z,89.50
2017-09-21T07:30:03.506Z,88.00
2017-09-21T07:32:31.752Z,90.20
2017-09-21T07:34:59.231Z,90.00
2017-09-21T07:37:27.435Z,81.20
2017-09-21T07:39:54.918Z,74.80
2017-09-21T07:42:22.408Z,73.40
2017-09-21T07:45:01.741Z,73.20
2017-09-21T07:47:37.952Z,73.60
2017-09-21T07:50:05.423Z,73.10
2017-09-21T07:52:32.911Z,76.10
2017-09-21T07:55:00.392Z,77.10
2017-09-21T07:57:31.407Z,78.40
2017-09-21T07:59:58.896Z,79.10
2017-09-21T08:02:26.386Z,76.70
2017-09-21T08:04:53.862Z,79.80
2017-09-21T08:07:21.346Z,78.40
2017-09-21T08:09:48.829Z,79.90
2017-09-21T08:12:16.321Z,79.60
2017-09-21T08:14:43.814Z,82.70
2017-09-21T08:17:11.306Z,84.00
2017-09-21T08:19:38.787Z,84.20
2017-09-21T08:22:07.048Z,84.70
2017-09-21T08:24:35.302Z,85.10
2017-09-21T08:27:02.783Z,84.90
2017-09-21T08:29:30.263Z,85.10
2017-09-21T08:31:58.510Z,84.10
2017-09-21T08:34:25.988Z,84.00
2017-09-21T08:36:54.230Z,85.10
2017-09-21T08:39:21.713Z,85.00
2017-09-21T08:41:49.195Z,84.10
2017-09-21T08:44:17.438Z,87.00
2017-09-21T08:46:44.917Z,86.90
2017-09-21T08:49:13.161Z,87.90
2017-09-21T08:51:40.634Z,87.60
2017-09-21T08:54:08.124Z,87.10
2017-09-21T08:56:39.198Z,87.80
2017-09-21T08:59:06.678Z,87.80
2017-09-21T09:01:34.154Z,87.80
2017-09-21T09:04:01.625Z,87.60
2017-09-21T09:06:29.882Z,86.90
2017-09-21T09:08:57.376Z,86.10
2017-09-21T09:11:25.628Z,82.20
2017-09-21T09:13:53.125Z,82.10
2017-09-21T09:16:20.609Z,82.60
2017-09-21T09:18:48.089Z,84.50
2017-09-21T09:23:49.385Z,83.90
2017-09-21T09:26:17.635Z,82.80
2017-09-21T09:28:45.114Z,82.60
2017-09-21T09:31:12.599Z,84.40
2017-09-21T09:33:40.078Z,81.90
2017-09-21T09:36:07.558Z,82.50
2017-09-21T09:38:35.039Z,83.90
2017-09-21T09:41:03.710Z,82.40
2017-09-21T09:43:31.196Z,83.80
2017-09-21T09:45:59.446Z,86.90
2017-09-21T09:51:00.227Z,83.80
2017-09-21T09:53:28.483Z,84.60
2017-09-21T09:55:55.968Z,84.30
2017-09-21T09:58:24.232Z,83.30
2017-09-21T10:00:51.709Z,82.50
2017-09-21T10:03:19.958Z,83.40
2017-09-21T10:05:47.455Z,83.30
2017-09-21T10:08:15.741Z,84.80
2017-09-21T10:10:43.225Z,84.80
2017-09-21T10:13:10.750Z,83.30
2017-09-21T10:15:38.999Z,84.80
2017-09-21T10:18:06.477Z,84.90
2017-09-21T10:20:34.734Z,82.40
2017-09-21T10:23:02.228Z,82.30
2017-09-21T10:25:46.755Z,81.00
2017-09-21T10:28:14.241Z,82.40
2017-09-21T10:30:46.740Z,83.30
2017-09-21T10:33:14.228Z,83.20
2017-09-21T10:35:42.677Z,83.50
2017-09-21T10:38:10.150Z,80.80
2017-09-21T10:40:37.639Z,84.30
2017-09-21T10:43:05.158Z,83.10
2017-09-21T10:45:32.645Z,83.60
2017-09-21T10:48:00.135Z,85.50
2017-09-21T10:50:31.237Z,83.30
2017-09-21T10:52:58.723Z,83.20
2017-09-21T10:55:26.215Z,81.30
2017-09-21T10:57:53.703Z,81.00
2017-09-21T11:00:21.178Z,82.10
2017-09-21T11:02:48.662Z,82.30
2017-09-21T11:05:16.147Z,82.70
2017-09-21T11:07:44.385Z,83.00
2017-09-21T11:10:11.866Z,83.10
2017-09-21T11:12:40.120Z,81.90
2017-09-21T11:15:07.614Z,81.90
2017-09-21T11:17:35.861Z,81.50
2017-09-21T11:20:03.396Z,81.50
2017-09-21T11:22:31.618Z,82.30
2017-09-21T11:24:59.869Z,81.00
2017-09-21T11:27:27.390Z,81.00
2017-09-21T11:29:55.636Z,78.80
2017-09-21T11:32:23.946Z,72.70
2017-09-21T11:34:51.446Z,71.80
2017-09-21T11:37:18.936Z,77.10
2017-09-21T11:39:47.224Z,72.10
2017-09-21T11:42:14.719Z,71.90
2017-09-21T11:44:42.200Z,85.80
2017-09-21T11:47:09.709Z,89.00
2017-09-21T11:49:37.227Z,72.30
2017-09-21T11:52:04.771Z,79.60
2017-09-21T11:54:35.090Z,76.50
2017-09-21T11:57:02.695Z,75.50
2017-09-21T11:59:30.960Z,67.30
2017-09-21T12:01:59.212Z,72.50
2017-09-21T12:04:26.705Z,72.40
2017-09-21T12:06:54.983Z,66.00
2017-09-21T12:09:23.244Z,66.80
2017-09-21T12:11:52.251Z,60.30
2017-09-21T12:14:20.507Z,61.20
2017-09-21T12:16:47.995Z,61.60
2017-09-21T12:19:16.251Z,60.40
2017-09-21T12:21:44.520Z,66.20
2017-09-21T12:24:13.511Z,59.80
2017-09-21T12:26:41.003Z,59.60
2017-09-21T12:29:09.256Z,58.70
2017-09-21T12:31:38.251Z,56.90
2017-09-21T12:34:06.501Z,56.20
2017-09-21T12:36:33.986Z,56.30
2017-09-21T12:39:02.264Z,59.40
2017-09-21T12:41:29.781Z,59.40
2017-09-21T12:43:58.066Z,59.30
2017-09-21T12:46:25.563Z,59.40
2017-09-21T12:48:53.072Z,59.10
2017-09-21T12:51:20.571Z,59.50
2017-09-21T12:53:48.055Z,62.40
2017-09-21T12:56:16.313Z,57.40
2017-09-21T12:58:45.305Z,58.90
2017-09-21T13:01:12.781Z,58.70
2017-09-21T13:03:43.788Z,61.40
2017-09-21T13:06:11.270Z,61.50
2017-09-21T13:08:39.528Z,52.90
2017-09-21T13:11:07.028Z,52.80
2017-09-21T13:13:35.283Z,52.80
2017-09-21T13:16:03.541Z,59.80
2017-09-21T13:18:31.059Z,59.70
2017-09-21T13:20:58.547Z,60.90
2017-09-21T13:23:26.043Z,61.30
2017-09-21T13:25:55.045Z,57.80
2017-09-21T13:28:23.304Z,57.00
2017-09-21T13:30:50.796Z,56.60
2017-09-21T13:33:18.286Z,59.00
2017-09-21T13:35:45.771Z,55.50
2017-09-21T13:38:13.257Z,55.60
2017-09-21T13:40:41.518Z,56.00
2017-09-21T13:43:09.783Z,60.80
2017-09-21T13:45:37.283Z,60.80
2017-09-21T13:48:19.503Z,59.30
2017-09-21T13:50:47.774Z,58.90
2017-09-21T13:53:15.266Z,57.70
2017-09-21T13:55:42.775Z,58.60
2017-09-21T13:58:11.034Z,62.20
2017-09-21T14:00:39.292Z,59.40
2017-09-21T14:03:06.786Z,59.20
2017-09-21T14:05:35.051Z,56.30
2017-09-21T14:08:09.299Z,56.50
2017-09-21T14:10:36.786Z,57.90
2017-09-21T14:13:04.292Z,60.10
2017-09-21T14:15:32.545Z,59.10
2017-09-21T14:18:00.031Z,59.00
2017-09-21T14:20:31.805Z,60.10
2017-09-21T14:23:00.075Z,59.50
2017-09-21T14:25:32.094Z,57.50
2017-09-21T14:27:59.582Z,57.60
2017-09-21T14:30:28.582Z,59.50
2017-09-21T14:32:56.838Z,57.90
2017-09-21T14:35:24.335Z,57.10
2017-09-21T14:37:52.578Z,56.60
2017-09-21T14:40:20.067Z,56.70
2017-09-21T14:42:48.321Z,55.10
2017-09-21T14:45:18.626Z,54.80
2017-09-21T14:47:46.119Z,54.10
2017-09-21T15:01:01.796Z,54.60
2017-09-21T15:03:30.056Z,54.80
2017-09-21T15:05:58.310Z,56.10
2017-09-21T15:08:25.789Z,55.90
2017-09-21T15:10:54.033Z,53.60
2017-09-21T15:13:21.511Z,53.50
2017-09-21T15:15:48.994Z,57.50
2017-09-21T15:18:17.251Z,57.30
2017-09-21T15:20:45.518Z,52.70
2017-09-21T15:23:12.993Z,52.60
2017-09-21T15:25:41.243Z,57.20
2017-09-21T15:28:08.743Z,56.20
2017-09-21T15:30:37.005Z,56.30
2017-09-21T15:33:05.263Z,54.60
2017-09-21T15:35:32.753Z,54.30
2017-09-21T15:38:01.008Z,54.10
2017-09-21T15:52:01.301Z,53.30
2017-09-21T15:54:28.788Z,54.90
2017-09-21T15:56:57.038Z,55.20
2017-09-21T15:59:24.522Z,55.20
2017-09-21T16:01:53.519Z,55.70
2017-09-21T16:04:21.784Z,59.00
2017-09-21T16:06:50.787Z,60.00
2017-09-21T16:09:19.051Z,56.40
2017-09-21T16:11:46.534Z,55.90
2017-09-21T16:14:14.783Z,56.20
2017-09-21T16:16:45.404Z,56.10
2017-09-21T16:19:12.894Z,56.10
2017-09-21T16:21:41.158Z,61.10
2017-09-21T16:24:09.418Z,60.90
2017-09-21T16:26:43.758Z,60.90
2017-09-21T16:29:27.636Z,58.80
2017-09-21T16:31:55.123Z,58.80
2017-09-21T16:34:22.624Z,58.30
2017-09-21T16:36:50.891Z,57.90
2017-09-21T16:39:18.391Z,57.90
2017-09-21T16:41:45.877Z,57.00
2017-09-21T16:44:13.367Z,58.00
2017-09-21T16:46:40.853Z,57.00
2017-09-21T16:49:23.091Z,56.90
2017-09-21T16:51:50.595Z,56.70
2017-09-21T16:54:18.099Z,56.50
2017-09-21T16:56:45.588Z,57.30
2017-09-21T16:59:13.078Z,56.20
2017-09-21T17:01:41.338Z,57.90
2017-09-21T17:04:08.830Z,57.90
2017-09-21T17:06:37.089Z,58.30
2017-09-21T17:09:04.587Z,58.30
2017-09-21T17:11:32.084Z,59.10
2017-09-21T17:13:59.586Z,59.50
2017-09-21T17:16:27.854Z,59.30
2017-09-21T17:18:56.124Z,68.20
2017-09-21T17:21:23.631Z,68.10
2017-09-21T17:23:51.116Z,66.20
2017-09-21T17:26:18.647Z,68.70
2017-09-21T17:28:46.167Z,70.30
2017-09-21T17:31:14.430Z,71.80
2017-09-21T17:33:41.954Z,71.70
2017-09-21T17:36:09.465Z,70.90
2017-09-21T17:38:38.192Z,81.90
2017-09-21T17:41:05.686Z,81.80
2017-09-21T17:43:33.188Z,77.10
2017-09-21T17:48:36.659Z,68.60
2017-09-21T17:51:04.146Z,68.70
2017-09-21T17:53:32.407Z,63.70
2017-09-21T17:55:59.923Z,63.70
2017-09-21T17:58:27.407Z,64.70
2017-09-21T18:00:54.905Z,66.10
2017-09-21T18:03:24.049Z,68.40
2017-09-21T18:05:51.530Z,68.40
2017-09-21T18:08:19.006Z,69.50
2017-09-21T18:10:56.415Z,71.80
2017-09-21T18:13:24.667Z,72.00
2017-09-21T18:15:52.163Z,72.00
2017-09-21T18:18:31.103Z,74.20
2017-09-21T18:20:58.598Z,74.00
2017-09-21T18:23:26.108Z,73.40
2017-09-21T18:25:54.364Z,74.60
2017-09-21T18:28:22.625Z,75.70
2017-09-21T18:30:50.114Z,75.60
2017-09-21T18:33:18.385Z,76.10
2017-09-21T18:35:46.662Z,75.00
2017-09-21T18:38:14.915Z,76.50
2017-09-21T18:40:42.385Z,76.30
2017-09-21T18:43:27.883Z,77.10
2017-09-21T18:45:58.658Z,77.60
2017-09-21T18:48:26.148Z,77.70
2017-09-21T18:50:53.646Z,77.40
2017-09-21T18:53:21.909Z,78.20
2017-09-21T18:55:50.172Z,78.40
2017-09-21T18:58:17.666Z,78.20
2017-09-21T19:00:45.176Z,77.70
2017-09-21T19:03:12.662Z,77.30
2017-09-21T19:05:40.979Z,77.30
2017-09-21T19:08:08.466Z,77.10
2017-09-21T19:11:08.824Z,77.00
2017-09-21T19:13:36.312Z,76.20
2017-09-21T19:16:03.833Z,78.40
2017-09-21T19:18:32.093Z,75.10
2017-09-21T19:20:59.580Z,75.00
2017-09-21T19:23:27.830Z,75.50
2017-09-21T19:25:55.305Z,75.40
2017-09-21T19:28:22.790Z,75.00
2017-09-21T19:30:51.048Z,74.70
2017-09-21T19:33:18.535Z,74.60
2017-09-21T19:35:46.032Z,75.30
2017-09-21T19:38:13.527Z,74.40
2017-09-21T19:40:41.778Z,75.60
2017-09-21T19:43:09.274Z,75.50
2017-09-21T19:45:37.586Z,76.40
2017-09-21T19:48:05.062Z,76.30
2017-09-21T19:50:32.544Z,77.20
2017-09-21T19:53:00.947Z,78.80
2017-09-21T19:55:29.196Z,79.30
2017-09-21T19:57:56.679Z,79.30
2017-09-21T20:00:24.927Z,79.30
2017-09-21T20:02:52.406Z,79.10
2017-09-21T20:05:19.879Z,79.90
2017-09-21T20:07:48.122Z,81.50
2017-09-21T20:10:15.612Z,81.50
2017-09-21T20:12:43.854Z,82.40
2017-09-21T20:15:11.332Z,82.30
2017-09-21T20:29:10.749Z,82.30
2017-09-21T20:31:39.007Z,84.00
2017-09-21T20:34:07.263Z,84.10
2017-09-21T20:36:34.763Z,83.30
2017-09-21T20:39:03.046Z,82.40
2017-09-21T20:41:30.527Z,82.40
2017-09-21T20:43:58.013Z,83.20
2017-09-21T20:46:25.494Z,82.90
2017-09-21T20:48:52.994Z,84.00
2017-09-21T20:51:35.351Z,83.10
2017-09-21T20:54:02.826Z,82.20
2017-09-21T20:59:27.708Z,81.90
2017-09-21T21:01:55.190Z,82.40
2017-09-21T21:04:22.673Z,82.80
2017-09-21T21:07:05.807Z,83.50
2017-09-21T21:09:33.277Z,83.40
2017-09-21T21:12:00.761Z,84.10
2017-09-21T21:14:29.226Z,83.90
2017-09-21T21:16:56.706Z,84.00
2017-09-21T21:19:24.194Z,84.40
2017-09-21T21:21:56.497Z,84.50
2017-09-21T21:24:23.982Z,86.90
2017-09-21T21:26:51.480Z,86.30
2017-09-21T21:29:19.726Z,85.30
2017-09-21T21:31:47.214Z,85.30
2017-09-21T21:34:14.709Z,85.30
2017-09-21T21:36:42.189Z,85.90
2017-09-21T21:39:09.679Z,86.60
2017-09-21T21:41:37.161Z,86.50
2017-09-21T21:44:05.419Z,88.50
2017-09-21T21:46:32.937Z,87.70
2017-09-21T21:49:00.432Z,88.50
2017-09-21T21:51:27.958Z,89.00
2017-09-21T21:53:55.449Z,89.10
2017-09-21T21:56:22.938Z,89.90
2017-09-21T21:58:56.281Z,89.40
2017-09-21T22:01:23.758Z,89.30
2017-09-21T22:03:51.256Z,89.70
2017-09-21T22:06:19.498Z,89.90
2017-09-21T22:08:46.987Z,89.80
2017-09-21T22:11:15.242Z,89.80
2017-09-21T22:13:42.730Z,89.60
2017-09-21T22:16:10.972Z,90.00
2017-09-21T22:18:38.483Z,90.00
2017-09-21T22:21:05.969Z,89.90
2017-09-21T22:23:33.512Z,89.80
2017-09-21T22:26:00.994Z,89.90
2017-09-21T22:28:28.492Z,90.10
2017-09-21T22:30:55.971Z,90.30
2017-09-21T22:33:24.222Z,89.40
2017-09-21T22:35:51.701Z,89.50
2017-09-21T22:38:24.955Z,90.10
2017-09-21T22:40:52.429Z,90.10
2017-09-21T22:43:34.873Z,90.00
2017-09-21T22:46:03.118Z,90.10
2017-09-21T22:48:32.096Z,89.80
2017-09-21T22:51:01.664Z,89.80
2017-09-21T22:53:31.986Z,89.60
2017-09-21T22:56:01.086Z,90.10
2017-09-21T22:58:28.569Z,90.00
2017-09-21T23:00:56.246Z,89.80
2017-09-21T23:03:23.731Z,90.20
2017-09-21T23:05:51.215Z,90.00
2017-09-21T23:08:19.450Z,90.00
2017-09-21T23:10:46.932Z,90.00
2017-09-21T23:13:15.175Z,89.60
2017-09-21T23:15:44.489Z,89.60
2017-09-21T23:18:11.966Z,89.10
2017-09-21T23:23:20.046Z,90.20
2017-09-21T23:25:47.542Z,90.70
2017-09-21T23:28:15.080Z,90.70
2017-09-21T23:30:42.558Z,91.10
2017-09-21T23:33:10.039Z,91.30
2017-09-21T23:35:38.278Z,91.20
2017-09-21T23:38:06.862Z,91.20
2017-09-21T23:40:40.467Z,90.90
2017-09-21T23:43:09.828Z,91.30
2017-09-21T23:45:46.646Z,90.70
2017-09-21T23:48:15.095Z,91.20
2017-09-21T23:50:46.826Z,90.90
2017-09-21T23:53:16.984Z,91.00
2017-09-21T23:55:46.487Z,91.00
2017-09-21T23:58:16.197Z,91.00
